Suisun City, California
Current Conditions -  °F | °C
As of 9:58 PM on Tuesday 21 Oct 2014 (Local Time) from KSUU Reporting Station
Clear Clear  
Wind Chill: 54°   Ceiling: Unl
Heat Index: 54°   Visibility: 10mi
Dew Point: 52°   Wind: 3mph
Humidity: 92%   Direction: 230°SW
Pressure: 30.02"   Gusts: NA
Location:  38.24°N, 122.03°W
Report Text: KSUU 220458Z AUTO 23003KT 10SM CLR 12/11 A3002 RMK AO2 SLP173 T01230111 $
Loading
Personal Weather Stations






























Interactive Weather Map
Tropical Storm Tracking
New forecast layout! Learn more

10-Day Weather Forecast

Advertisements
Track Severe Weather on mobile